createdAt,value
2023-05-16T00:00:43.009Z,31.61
2023-05-16T00:01:43.143Z,31.61
2023-05-16T00:02:43.289Z,31.61
2023-05-16T00:03:43.325Z,31.63
2023-05-16T00:04:43.359Z,31.60
2023-05-16T00:05:43.338Z,31.60
2023-05-16T00:06:43.771Z,31.66
2023-05-16T00:07:43.521Z,31.64
2023-05-16T00:08:43.558Z,31.63
2023-05-16T00:09:43.579Z,31.63
2023-05-16T00:10:43.626Z,31.61
2023-05-16T00:11:43.698Z,31.63
2023-05-16T00:12:43.780Z,31.67
2023-05-16T00:13:43.817Z,31.63
2023-05-16T00:14:43.918Z,31.64
2023-05-16T00:15:43.985Z,31.65
2023-05-16T00:16:44.076Z,31.63
2023-05-16T00:17:44.156Z,31.64
2023-05-16T00:18:44.152Z,31.67
2023-05-16T00:19:44.202Z,31.68
2023-05-16T00:20:44.274Z,31.67
2023-05-16T00:21:44.386Z,31.69
2023-05-16T00:22:44.402Z,31.68
2023-05-16T00:23:44.486Z,31.67
2023-05-16T00:24:44.518Z,31.69
2023-05-16T00:25:44.679Z,31.67
2023-05-16T00:26:44.685Z,31.65
2023-05-16T00:27:44.746Z,31.65
2023-05-16T00:28:44.788Z,31.60
2023-05-16T00:29:44.851Z,31.61
2023-05-16T00:30:44.917Z,31.68
2023-05-16T00:31:45.043Z,31.67
2023-05-16T00:32:45.058Z,31.63
2023-05-16T00:33:45.159Z,31.64
2023-05-16T00:34:45.178Z,31.68
2023-05-16T00:35:45.222Z,31.70
2023-05-16T00:36:45.261Z,31.71
2023-05-16T00:37:45.347Z,31.63
2023-05-16T00:38:45.420Z,31.68
2023-05-16T00:39:45.602Z,31.67
2023-05-16T00:40:45.571Z,31.61
2023-05-16T00:41:45.551Z,31.69
2023-05-16T00:42:45.622Z,31.61
2023-05-16T00:43:45.702Z,31.68
2023-05-16T00:44:45.790Z,31.67
2023-05-16T00:45:45.776Z,31.72
2023-05-16T00:46:45.890Z,31.68
2023-05-16T00:47:46.026Z,31.71
2023-05-16T00:48:45.977Z,31.75
2023-05-16T00:49:46.093Z,31.70
2023-05-16T00:50:46.098Z,31.74
2023-05-16T00:51:46.132Z,31.72
2023-05-16T00:52:46.243Z,31.73
2023-05-16T00:53:46.257Z,31.69
2023-05-16T00:54:46.324Z,31.72
2023-05-16T00:55:46.389Z,31.75
2023-05-16T00:56:46.449Z,31.74
2023-05-16T00:57:46.544Z,31.80
2023-05-16T00:58:46.607Z,31.70
2023-05-16T00:59:46.713Z,31.74
2023-05-16T01:00:48.591Z,31.72
2023-05-16T01:01:46.873Z,31.72
2023-05-16T01:02:46.939Z,31.75
2023-05-16T01:03:48.087Z,31.70
2023-05-16T01:04:47.011Z,31.68
2023-05-16T01:05:47.014Z,31.73
2023-05-16T01:06:47.060Z,31.72
2023-05-16T01:07:47.165Z,31.73
2023-05-16T01:08:47.202Z,31.73
2023-05-16T01:09:47.222Z,31.73
2023-05-16T01:10:47.257Z,31.71
2023-05-16T01:11:47.864Z,31.71
2023-05-16T01:12:47.389Z,31.72
2023-05-16T01:13:47.474Z,31.74
2023-05-16T01:14:47.584Z,31.74
2023-05-16T01:15:47.519Z,31.72
2023-05-16T01:16:47.706Z,31.73
2023-05-16T01:17:47.875Z,31.77
2023-05-16T01:18:47.726Z,31.73
2023-05-16T01:19:47.858Z,31.78
2023-05-16T01:20:47.864Z,31.78
2023-05-16T01:21:48.038Z,31.80
2023-05-16T01:22:47.968Z,31.76
2023-05-16T01:23:48.059Z,31.73
2023-05-16T01:24:48.151Z,31.75
2023-05-16T01:25:48.169Z,31.74
2023-05-16T01:26:48.192Z,31.80
2023-05-16T01:27:48.285Z,31.74
2023-05-16T01:28:48.389Z,31.69
2023-05-16T01:29:48.402Z,31.73
2023-05-16T01:30:48.492Z,31.77
2023-05-16T01:31:48.573Z,31.72
2023-05-16T01:32:48.619Z,31.73
2023-05-16T01:33:48.631Z,31.72
2023-05-16T01:34:48.642Z,31.76
2023-05-16T01:35:48.675Z,31.77
2023-05-16T01:36:48.691Z,31.77
2023-05-16T01:37:48.739Z,31.73
2023-05-16T01:38:48.802Z,31.80
2023-05-16T01:39:48.891Z,31.82
2023-05-16T01:40:48.903Z,31.82
2023-05-16T01:41:48.971Z,31.80
2023-05-16T01:42:49.109Z,31.78
2023-05-16T01:43:49.109Z,31.76
2023-05-16T01:44:49.238Z,31.82
2023-05-16T01:45:49.202Z,31.77
2023-05-16T01:46:49.238Z,31.80
2023-05-16T01:47:49.378Z,31.82
2023-05-16T01:48:49.331Z,31.85
2023-05-16T01:49:49.461Z,31.86
2023-05-16T01:50:49.446Z,31.78
2023-05-16T01:51:49.522Z,31.83
2023-05-16T01:52:49.565Z,31.82
2023-05-16T01:53:49.585Z,31.81
2023-05-16T01:54:49.725Z,31.83
2023-05-16T01:55:49.689Z,31.83
2023-05-16T01:56:49.754Z,31.79
2023-05-16T01:57:49.837Z,31.83
2023-05-16T01:58:49.903Z,31.77
2023-05-16T01:59:50.044Z,31.81
2023-05-16T02:00:50.009Z,31.81
2023-05-16T02:01:50.033Z,31.81
2023-05-16T02:02:50.178Z,31.82
2023-05-16T02:03:50.206Z,31.85
2023-05-16T02:04:50.248Z,31.85
2023-05-16T02:05:50.287Z,31.85
2023-05-16T02:06:50.385Z,31.85
2023-05-16T02:07:50.423Z,31.83
2023-05-16T02:08:50.465Z,31.82
2023-05-16T02:09:50.631Z,31.82
2023-05-16T02:10:50.635Z,31.86
2023-05-16T02:11:50.698Z,31.80
2023-05-16T02:12:50.756Z,31.84
2023-05-16T02:13:50.735Z,31.86
2023-05-16T02:14:50.730Z,31.87
2023-05-16T02:15:50.787Z,31.85
2023-05-16T02:16:50.848Z,31.86
2023-05-16T02:17:50.926Z,31.87
2023-05-16T02:18:51.024Z,31.89
2023-05-16T02:19:51.004Z,31.87
2023-05-16T02:20:51.088Z,31.87
2023-05-16T02:21:51.122Z,31.89
2023-05-16T02:22:51.197Z,31.84
2023-05-16T02:23:51.234Z,31.86
2023-05-16T02:24:51.281Z,31.85
2023-05-16T02:25:51.374Z,31.90
2023-05-16T02:26:51.369Z,31.88
2023-05-16T02:27:51.394Z,31.88
2023-05-16T02:28:51.484Z,31.86
2023-05-16T02:29:51.586Z,31.86
2023-05-16T02:30:51.626Z,31.86
2023-05-16T02:31:51.644Z,31.90
2023-05-16T02:32:51.737Z,31.83
2023-05-16T02:33:51.737Z,31.90
2023-05-16T02:34:51.794Z,31.87
2023-05-16T02:35:51.841Z,31.88
2023-05-16T02:36:51.951Z,31.90
2023-05-16T02:37:51.938Z,31.97
2023-05-16T02:38:51.974Z,31.86
2023-05-16T02:39:52.187Z,31.91
2023-05-16T02:40:52.080Z,31.93
2023-05-16T02:41:52.202Z,31.85
2023-05-16T02:42:52.166Z,31.90
2023-05-16T02:43:52.158Z,31.90
2023-05-16T02:44:52.213Z,31.93
2023-05-16T02:45:52.329Z,31.90
2023-05-16T02:46:52.447Z,31.93
2023-05-16T02:47:52.454Z,31.93
2023-05-16T02:48:52.437Z,31.92
2023-05-16T02:49:52.575Z,31.93
2023-05-16T02:50:52.516Z,31.88
2023-05-16T02:51:52.625Z,31.94
2023-05-16T02:52:52.714Z,31.95
2023-05-16T02:53:52.686Z,31.93
2023-05-16T02:55:52.763Z,31.95
2023-05-16T02:56:52.766Z,31.92
2023-05-16T02:57:52.718Z,31.94
2023-05-16T02:58:52.715Z,31.92
2023-05-16T02:59:52.780Z,31.87
2023-05-16T03:00:52.717Z,31.91
2023-05-16T03:01:52.818Z,31.94
2023-05-16T03:02:52.894Z,31.90
2023-05-16T03:03:52.853Z,31.95
2023-05-16T03:04:52.720Z,31.92
2023-05-16T03:05:52.724Z,31.97
2023-05-16T03:06:52.690Z,31.90
2023-05-16T03:07:52.657Z,31.90
2023-05-16T03:08:52.673Z,31.93
2023-05-16T03:09:52.653Z,31.92
2023-05-16T03:10:52.658Z,31.90
2023-05-16T03:11:52.669Z,31.93
2023-05-16T03:12:52.668Z,31.94
2023-05-16T03:13:52.691Z,31.91
2023-05-16T03:14:52.620Z,31.95
2023-05-16T03:15:52.656Z,31.91
2023-05-16T03:16:52.609Z,31.91
2023-05-16T03:17:52.711Z,31.92
2023-05-16T03:18:52.633Z,31.91
2023-05-16T03:19:52.573Z,31.91
2023-05-16T03:20:52.607Z,31.94
2023-05-16T03:21:52.591Z,31.89
2023-05-16T03:22:52.562Z,31.91
2023-05-16T03:23:52.572Z,31.95
2023-05-16T03:24:52.540Z,31.90
2023-05-16T03:25:52.555Z,31.95
2023-05-16T03:26:52.528Z,31.91
2023-05-16T03:27:52.567Z,31.88
2023-05-16T03:28:52.504Z,31.94
2023-05-16T03:29:52.604Z,31.95
2023-05-16T03:30:52.519Z,31.92
2023-05-16T03:31:52.567Z,31.92
2023-05-16T03:32:52.512Z,31.92
2023-05-16T03:33:52.479Z,31.95
2023-05-16T03:34:52.548Z,31.95
2023-05-16T03:35:52.479Z,31.95
2023-05-16T03:36:52.455Z,31.97
2023-05-16T03:37:52.463Z,31.95
2023-05-16T03:38:52.454Z,31.94
2023-05-16T03:39:52.436Z,31.94
2023-05-16T03:40:52.448Z,31.95
2023-05-16T03:41:52.416Z,31.92
2023-05-16T03:42:52.517Z,31.95
2023-05-16T03:43:52.532Z,31.97
2023-05-16T03:44:52.650Z,31.95
2023-05-16T03:45:52.707Z,31.97
2023-05-16T03:46:52.713Z,31.95
2023-05-16T03:47:52.763Z,31.95
2023-05-16T03:48:52.819Z,31.95
2023-05-16T03:49:52.847Z,31.98
2023-05-16T03:50:52.889Z,31.97
2023-05-16T03:51:52.952Z,31.95
2023-05-16T03:52:53.011Z,31.99
2023-05-16T03:53:53.035Z,31.95
2023-05-16T03:54:53.094Z,31.97
2023-05-16T03:55:53.169Z,31.98
2023-05-16T03:56:53.202Z,31.98
2023-05-16T03:57:53.283Z,31.98
2023-05-16T03:58:53.312Z,31.97
2023-05-16T03:59:53.359Z,31.98
2023-05-16T04:00:53.416Z,31.97
2023-05-16T04:01:53.520Z,31.95
2023-05-16T04:02:53.675Z,32.02
2023-05-16T04:03:53.493Z,31.97
2023-05-16T04:04:53.537Z,31.97
2023-05-16T04:05:53.684Z,31.98
2023-05-16T04:06:53.610Z,31.93
2023-05-16T04:07:53.700Z,31.90
2023-05-16T04:08:53.785Z,31.92
2023-05-16T04:09:53.779Z,31.81
2023-05-16T04:10:53.852Z,31.80
2023-05-16T04:11:53.875Z,31.81
2023-05-16T04:12:53.898Z,31.76
2023-05-16T04:13:53.973Z,31.71
2023-05-16T04:14:54.057Z,31.73
2023-05-16T04:15:54.078Z,31.72
2023-05-16T04:16:54.126Z,31.67
2023-05-16T04:17:54.247Z,31.68
2023-05-16T04:18:54.341Z,31.67
2023-05-16T04:19:54.303Z,31.67
2023-05-16T04:20:54.347Z,31.66
2023-05-16T04:21:54.431Z,31.63
2023-05-16T04:22:54.474Z,31.66
2023-05-16T04:23:54.532Z,31.63
2023-05-16T04:24:54.583Z,31.66
2023-05-16T04:25:54.652Z,31.67
2023-05-16T04:26:54.719Z,31.67
2023-05-16T04:27:54.782Z,31.62
2023-05-16T04:28:54.892Z,31.65
2023-05-16T04:29:55.163Z,31.67
2023-05-16T04:30:54.931Z,31.65
2023-05-16T04:31:55.037Z,31.71
2023-05-16T04:32:55.118Z,31.76
2023-05-16T04:33:55.123Z,31.78
2023-05-16T04:34:55.178Z,31.81
2023-05-16T04:35:55.193Z,31.86
2023-05-16T04:36:55.290Z,31.92
2023-05-16T04:37:55.288Z,31.87
2023-05-16T04:38:55.304Z,31.92
2023-05-16T04:39:55.369Z,31.86
2023-05-16T04:40:55.410Z,31.94
2023-05-16T04:41:55.431Z,31.95
2023-05-16T04:42:55.489Z,31.92
2023-05-16T04:43:55.539Z,31.93
2023-05-16T04:44:55.560Z,31.95
2023-05-16T04:45:55.647Z,31.98
2023-05-16T04:46:55.664Z,31.96
2023-05-16T04:47:55.748Z,31.96
2023-05-16T04:48:55.637Z,31.99
2023-05-16T04:49:55.646Z,31.97
2023-05-16T04:50:55.711Z,31.96
2023-05-16T04:51:55.710Z,31.97
2023-05-16T04:52:56.574Z,31.99
2023-05-16T04:53:55.652Z,31.97
2023-05-16T04:54:55.740Z,31.97
2023-05-16T04:55:55.668Z,31.97
2023-05-16T04:56:55.676Z,31.97
2023-05-16T04:57:55.668Z,31.97
2023-05-16T04:58:55.708Z,31.97
2023-05-16T04:59:55.765Z,31.99
2023-05-16T05:00:55.733Z,31.97
2023-05-16T05:01:55.717Z,31.97
2023-05-16T05:02:55.729Z,32.01
2023-05-16T05:03:55.643Z,32.04
2023-05-16T05:04:55.640Z,32.08
2023-05-16T05:05:55.613Z,32.13
2023-05-16T05:06:55.625Z,32.21
2023-05-16T05:07:55.696Z,32.18
2023-05-16T05:08:55.651Z,32.22
2023-05-16T05:09:55.615Z,32.27
2023-05-16T05:10:55.616Z,32.35
2023-05-16T05:11:55.622Z,32.30
2023-05-16T05:12:55.630Z,32.34
2023-05-16T05:13:55.661Z,32.37
2023-05-16T05:14:55.645Z,32.37
2023-05-16T05:15:55.599Z,32.38
2023-05-16T05:16:55.630Z,32.40
2023-05-16T05:17:55.676Z,32.40
2023-05-16T05:18:55.686Z,32.36
2023-05-16T05:19:55.588Z,32.34
2023-05-16T05:20:55.620Z,32.37
2023-05-16T05:21:55.562Z,32.41
2023-05-16T05:22:55.591Z,32.36
2023-05-16T05:23:55.592Z,32.40
2023-05-16T05:24:55.580Z,32.43
2023-05-16T05:25:55.658Z,32.37
2023-05-16T05:26:55.613Z,32.35
2023-05-16T05:27:55.603Z,32.38
2023-05-16T05:29:04.505Z,32.38
2023-05-16T05:29:56.609Z,32.40
2023-05-16T05:30:55.700Z,32.51
2023-05-16T05:31:55.622Z,32.99
2023-05-16T05:32:55.588Z,33.28
2023-05-16T05:33:55.593Z,33.55
2023-05-16T05:34:55.619Z,33.50
2023-05-16T05:35:55.679Z,33.41
2023-05-16T05:36:55.621Z,33.53
2023-05-16T05:37:55.654Z,33.50
2023-05-16T05:38:55.523Z,33.56
2023-05-16T05:39:55.582Z,33.55
2023-05-16T05:40:55.607Z,34.10
2023-05-16T05:41:55.527Z,34.18
2023-05-16T05:42:55.566Z,34.28
2023-05-16T05:43:55.567Z,34.26
2023-05-16T05:44:55.515Z,34.19
2023-05-16T05:45:55.514Z,34.02
2023-05-16T05:46:55.572Z,34.05
2023-05-16T05:47:55.464Z,34.06
2023-05-16T05:48:55.522Z,33.89
2023-05-16T05:49:55.512Z,33.73
2023-05-16T05:50:55.477Z,33.66
2023-05-16T05:51:55.432Z,33.75
2023-05-16T05:52:55.428Z,33.75
2023-05-16T05:53:55.404Z,33.79
2023-05-16T05:54:55.946Z,33.77
2023-05-16T05:55:55.512Z,33.60
2023-05-16T05:56:55.523Z,33.67
2023-05-16T05:57:55.535Z,33.64
2023-05-16T05:58:55.695Z,33.67
2023-05-16T05:59:55.707Z,33.64
2023-05-16T06:00:55.694Z,33.43
2023-05-16T06:01:55.795Z,33.45
2023-05-16T06:02:56.002Z,33.56
2023-05-16T06:03:55.922Z,33.62
2023-05-16T06:04:55.977Z,33.62
2023-05-16T06:05:56.059Z,33.50
2023-05-16T06:06:56.108Z,33.59
2023-05-16T06:07:56.104Z,33.50
2023-05-16T06:08:56.216Z,33.42
2023-05-16T06:09:56.270Z,33.48
2023-05-16T06:10:57.864Z,33.36
2023-05-16T06:11:56.332Z,33.43
2023-05-16T06:12:56.446Z,33.35
2023-05-16T06:13:56.496Z,33.45
2023-05-16T06:14:56.565Z,33.39
2023-05-16T06:15:56.610Z,33.44
2023-05-16T06:16:56.707Z,33.36
2023-05-16T06:17:56.821Z,33.45
2023-05-16T06:18:56.856Z,33.48
2023-05-16T06:19:56.855Z,33.43
2023-05-16T06:20:56.910Z,33.45
2023-05-16T06:21:56.961Z,33.51
2023-05-16T06:22:57.079Z,33.57
2023-05-16T06:23:57.076Z,33.58
2023-05-16T06:24:57.141Z,33.61
2023-05-16T06:25:57.252Z,33.63
2023-05-16T06:26:57.315Z,33.76
2023-05-16T06:27:57.390Z,33.75
2023-05-16T06:28:57.426Z,33.81
2023-05-16T06:29:57.479Z,33.77
2023-05-16T06:30:57.634Z,34.07
2023-05-16T06:31:57.773Z,33.97
2023-05-16T06:32:57.685Z,34.04
2023-05-16T06:33:57.664Z,34.00
2023-05-16T06:34:57.720Z,34.01
2023-05-16T06:35:57.736Z,34.02
2023-05-16T06:36:57.844Z,34.12
2023-05-16T06:37:58.458Z,34.83
2023-05-16T06:38:58.117Z,34.94
2023-05-16T06:39:57.704Z,34.95
2023-05-16T06:40:58.629Z,34.79
2023-05-16T06:41:57.720Z,34.60
2023-05-16T06:42:57.726Z,34.75
2023-05-16T06:43:57.728Z,34.86
2023-05-16T06:44:57.737Z,34.99
2023-05-16T06:45:57.810Z,35.23
2023-05-16T06:46:57.940Z,35.08
2023-05-16T06:47:57.904Z,34.99
2023-05-16T06:48:57.891Z,34.75
2023-05-16T06:49:57.974Z,34.79
2023-05-16T06:50:58.058Z,34.67
2023-05-16T06:51:58.088Z,34.57
2023-05-16T06:52:58.155Z,34.47
2023-05-16T06:53:58.211Z,34.37
2023-05-16T06:54:58.277Z,34.36
2023-05-16T06:55:58.316Z,34.30
2023-05-16T06:56:58.386Z,34.10
2023-05-16T06:57:58.439Z,34.09
2023-05-16T06:58:58.503Z,34.17
2023-05-16T06:59:58.569Z,34.16
2023-05-16T07:00:58.635Z,34.29
2023-05-16T07:01:58.676Z,34.09
2023-05-16T07:02:58.787Z,33.98
2023-05-16T07:03:58.931Z,34.05
2023-05-16T07:04:58.843Z,34.12
2023-05-16T07:05:58.903Z,33.99
2023-05-16T07:06:58.980Z,34.22
2023-05-16T07:07:59.081Z,34.13
2023-05-16T07:08:59.138Z,34.12
2023-05-16T07:09:59.202Z,34.02
2023-05-16T07:10:59.235Z,34.03
2023-05-16T07:11:59.284Z,33.94
2023-05-16T07:12:59.334Z,34.09
2023-05-16T07:13:59.420Z,34.11
2023-05-16T07:14:59.427Z,34.01
2023-05-16T07:15:59.564Z,34.00
2023-05-16T07:16:59.645Z,33.99
2023-05-16T07:17:59.704Z,33.97
2023-05-16T07:18:59.709Z,34.03
2023-05-16T07:19:59.736Z,33.95
2023-05-16T07:20:59.783Z,33.88
2023-05-16T07:21:59.829Z,34.00
2023-05-16T07:22:59.907Z,33.97
2023-05-16T07:23:59.948Z,33.95
2023-05-16T07:25:00.039Z,34.01
2023-05-16T07:26:00.087Z,34.18
2023-05-16T07:27:00.075Z,33.95
2023-05-16T07:28:00.239Z,34.00
2023-05-16T07:29:00.185Z,34.06
2023-05-16T07:30:00.253Z,33.86
2023-05-16T07:31:00.324Z,33.96
2023-05-16T07:32:00.441Z,34.07
2023-05-16T07:33:00.486Z,34.22
2023-05-16T07:34:00.544Z,34.13
2023-05-16T07:35:00.591Z,34.36
2023-05-16T07:36:12.010Z,34.33
2023-05-16T07:37:01.554Z,34.25
2023-05-16T07:38:00.559Z,34.19
2023-05-16T07:39:00.560Z,34.23
2023-05-16T07:40:00.537Z,34.09
2023-05-16T07:41:00.536Z,34.12
2023-05-16T07:42:00.560Z,34.05
2023-05-16T07:43:00.485Z,33.99
2023-05-16T07:44:00.488Z,34.04
2023-05-16T07:45:00.619Z,33.92
2023-05-16T07:46:00.644Z,33.85
2023-05-16T07:47:00.688Z,33.83
2023-05-16T07:48:00.749Z,33.77
2023-05-16T07:49:01.069Z,33.84
2023-05-16T07:50:00.800Z,33.77
2023-05-16T07:51:00.873Z,33.72
2023-05-16T07:52:01.048Z,33.73
2023-05-16T07:53:00.982Z,33.63
2023-05-16T07:54:01.014Z,33.49
2023-05-16T07:55:01.126Z,33.48
2023-05-16T07:56:01.141Z,33.52
2023-05-16T07:57:01.138Z,33.45
2023-05-16T07:58:01.235Z,33.54
2023-05-16T07:59:01.290Z,33.38
2023-05-16T08:00:01.382Z,33.38
2023-05-16T08:01:01.337Z,33.34
2023-05-16T08:02:01.399Z,33.33
2023-05-16T08:03:01.569Z,33.41
2023-05-16T08:04:01.690Z,33.31
2023-05-16T08:05:01.596Z,33.24
2023-05-16T08:06:01.652Z,33.29
2023-05-16T08:07:01.661Z,33.17
2023-05-16T08:08:01.689Z,33.15
2023-05-16T08:09:01.734Z,33.29
2023-05-16T08:10:01.797Z,33.26
2023-05-16T08:11:01.802Z,33.29
2023-05-16T08:12:02.079Z,33.30
2023-05-16T08:13:01.950Z,33.34
2023-05-16T08:14:01.983Z,33.37
2023-05-16T08:15:01.994Z,33.40
2023-05-16T08:16:02.119Z,33.37
2023-05-16T08:17:02.061Z,33.43
2023-05-16T08:18:02.137Z,33.45
2023-05-16T08:19:02.383Z,33.50
2023-05-16T08:20:02.238Z,33.51
2023-05-16T08:21:02.275Z,33.50
2023-05-16T08:22:02.298Z,33.49
2023-05-16T08:23:02.351Z,33.41
2023-05-16T08:24:02.840Z,33.46
2023-05-16T08:25:02.427Z,33.73
2023-05-16T08:26:02.469Z,33.54
2023-05-16T08:27:02.508Z,33.94
2023-05-16T08:28:02.605Z,34.51
2023-05-16T08:29:02.638Z,34.31
2023-05-16T08:30:02.645Z,34.24
2023-05-16T08:31:02.777Z,34.32
2023-05-16T08:32:02.833Z,34.28
2023-05-16T08:33:02.870Z,34.49
2023-05-16T08:34:02.894Z,34.38
2023-05-16T08:35:03.551Z,34.38
2023-05-16T08:36:03.060Z,34.28
2023-05-16T08:37:03.143Z,34.36
2023-05-16T08:38:03.345Z,34.12
2023-05-16T08:39:03.287Z,34.16
2023-05-16T08:40:03.182Z,34.57
2023-05-16T08:41:03.290Z,34.61
2023-05-16T08:42:03.295Z,34.49
2023-05-16T08:43:03.414Z,34.54
2023-05-16T08:44:03.416Z,34.38
2023-05-16T08:45:03.519Z,34.30
2023-05-16T08:46:03.486Z,34.23
2023-05-16T08:47:03.813Z,34.24
2023-05-16T08:48:03.710Z,34.10
2023-05-16T08:49:03.708Z,34.08
2023-05-16T08:50:03.686Z,34.02
2023-05-16T08:51:03.792Z,34.29
2023-05-16T08:52:03.833Z,34.08
2023-05-16T08:53:03.896Z,33.97
2023-05-16T08:54:03.915Z,33.91
2023-05-16T08:55:10.408Z,33.89
2023-05-16T08:56:04.953Z,33.84
2023-05-16T08:57:04.500Z,33.82
2023-05-16T08:58:03.932Z,33.77
2023-05-16T08:59:03.999Z,33.83
2023-05-16T09:00:03.943Z,33.81
2023-05-16T09:01:03.977Z,33.85
2023-05-16T09:02:03.911Z,33.80
2023-05-16T09:03:03.933Z,33.75
2023-05-16T09:04:03.971Z,33.68
2023-05-16T09:05:03.865Z,33.66
2023-05-16T09:06:04.553Z,33.66
2023-05-16T09:07:03.931Z,33.65
2023-05-16T09:08:03.890Z,33.46
2023-05-16T09:09:04.002Z,33.42
2023-05-16T09:10:03.996Z,33.42
2023-05-16T09:11:04.004Z,33.37
2023-05-16T09:12:04.180Z,33.45
2023-05-16T09:13:04.119Z,33.43
2023-05-16T09:14:04.129Z,33.35
2023-05-16T09:15:04.548Z,33.45
2023-05-16T09:16:04.245Z,33.56
2023-05-16T09:17:04.345Z,33.35
2023-05-16T09:18:04.422Z,33.31
2023-05-16T09:19:04.410Z,33.29
2023-05-16T09:20:04.362Z,33.38
2023-05-16T09:21:04.376Z,33.32
2023-05-16T09:22:04.489Z,33.56
2023-05-16T09:23:04.674Z,33.39
2023-05-16T09:24:04.561Z,33.30
2023-05-16T09:25:06.880Z,33.50
2023-05-16T09:26:04.478Z,33.40
2023-05-16T09:27:04.531Z,33.51
2023-05-16T09:28:04.609Z,33.68
2023-05-16T09:29:04.495Z,33.87
2023-05-16T09:30:04.659Z,33.81
2023-05-16T09:31:04.558Z,33.69
2023-05-16T09:32:04.476Z,34.02
2023-05-16T09:33:04.548Z,34.26
2023-05-16T09:34:04.546Z,34.58
2023-05-16T09:35:04.525Z,34.59
2023-05-16T09:36:04.501Z,34.20
2023-05-16T09:37:04.556Z,34.30
2023-05-16T09:38:04.514Z,34.10
2023-05-16T09:39:04.453Z,34.10
2023-05-16T09:40:04.464Z,34.05
2023-05-16T09:41:04.415Z,33.93
2023-05-16T09:42:04.429Z,33.84
2023-05-16T09:43:04.635Z,33.81
2023-05-16T09:44:04.391Z,33.75
2023-05-16T09:45:04.487Z,33.83
2023-05-16T09:46:04.473Z,33.68
2023-05-16T09:47:04.358Z,33.65
2023-05-16T09:48:04.408Z,33.75
2023-05-16T09:49:04.392Z,33.72
2023-05-16T09:50:04.432Z,33.71
2023-05-16T09:51:04.378Z,33.80
2023-05-16T09:52:04.320Z,33.68
2023-05-16T09:53:04.522Z,33.69
2023-05-16T09:54:04.347Z,33.68
2023-05-16T09:55:04.320Z,33.69
2023-05-16T09:56:04.529Z,33.63
2023-05-16T09:57:04.411Z,33.60
2023-05-16T09:58:04.337Z,33.65
2023-05-16T09:59:04.290Z,33.69
2023-05-16T10:00:04.298Z,33.69
2023-05-16T10:01:04.321Z,33.67
2023-05-16T10:02:04.290Z,33.70
2023-05-16T10:03:05.782Z,33.65
2023-05-16T10:04:04.565Z,33.67
2023-05-16T10:05:04.259Z,33.70
2023-05-16T10:06:04.255Z,33.69
2023-05-16T10:07:04.315Z,33.75
2023-05-16T10:08:04.217Z,33.72
2023-05-16T10:09:04.260Z,33.62
2023-05-16T10:10:04.339Z,33.70
2023-05-16T10:11:04.345Z,33.67
2023-05-16T10:12:04.366Z,33.72
2023-05-16T10:13:04.367Z,33.68
2023-05-16T10:14:06.046Z,33.67
2023-05-16T10:15:04.441Z,33.67
2023-05-16T10:16:04.581Z,33.66
2023-05-16T10:17:05.013Z,33.63
2023-05-16T10:18:04.426Z,33.69
2023-05-16T10:19:04.446Z,33.68
2023-05-16T10:20:04.370Z,33.72
2023-05-16T10:21:04.441Z,33.69
2023-05-16T10:22:04.402Z,33.79
2023-05-16T10:23:04.381Z,33.78
2023-05-16T10:24:04.350Z,33.76
2023-05-16T10:25:04.359Z,33.78
2023-05-16T10:26:04.322Z,33.71
2023-05-16T10:27:04.335Z,33.76
2023-05-16T10:28:04.346Z,33.77
2023-05-16T10:29:04.321Z,33.78
2023-05-16T10:30:04.271Z,33.76
2023-05-16T10:31:04.407Z,33.84
2023-05-16T10:32:04.321Z,33.87
2023-05-16T10:33:04.371Z,33.84
2023-05-16T10:34:04.278Z,33.82
2023-05-16T10:35:04.280Z,33.83
2023-05-16T10:36:04.291Z,33.81
2023-05-16T10:37:04.363Z,33.89
2023-05-16T10:38:06.578Z,33.91
2023-05-16T10:39:04.212Z,33.87
2023-05-16T10:40:04.194Z,33.99
2023-05-16T10:41:04.206Z,34.03
2023-05-16T10:42:04.196Z,34.00
2023-05-16T10:43:04.209Z,33.96
2023-05-16T10:44:04.173Z,33.96
2023-05-16T10:45:05.872Z,34.07
2023-05-16T10:46:04.246Z,34.16
2023-05-16T10:47:04.218Z,34.16
2023-05-16T10:48:04.205Z,34.22
2023-05-16T10:49:04.181Z,34.30
2023-05-16T10:50:04.107Z,34.21
2023-05-16T10:51:04.422Z,34.25
2023-05-16T10:52:04.116Z,34.29
2023-05-16T10:53:04.155Z,34.30
2023-05-16T10:54:04.415Z,34.29
2023-05-16T10:55:04.199Z,34.29
2023-05-16T10:56:04.255Z,34.19
2023-05-16T10:57:04.281Z,34.25
2023-05-16T10:58:04.388Z,34.26
2023-05-16T10:59:04.357Z,34.16
2023-05-16T11:00:04.385Z,34.25
2023-05-16T11:01:04.459Z,34.16
2023-05-16T11:02:04.663Z,34.21
2023-05-16T11:03:04.609Z,34.15
2023-05-16T11:04:04.910Z,34.11
2023-05-16T11:05:04.579Z,34.15
2023-05-16T11:06:04.628Z,34.14
2023-05-16T11:07:04.678Z,34.08
2023-05-16T11:08:04.703Z,34.09
2023-05-16T11:09:04.749Z,34.01
2023-05-16T11:10:04.792Z,34.04
2023-05-16T11:11:04.819Z,34.07
2023-05-16T11:12:04.876Z,34.00
2023-05-16T11:13:04.924Z,34.26
2023-05-16T11:14:05.063Z,34.34
2023-05-16T11:15:05.009Z,34.49
2023-05-16T11:16:05.095Z,34.48
2023-05-16T11:17:05.258Z,34.49
2023-05-16T11:18:05.630Z,34.43
2023-05-16T11:19:05.297Z,34.45
2023-05-16T11:20:05.403Z,34.45
2023-05-16T11:21:05.349Z,34.51
2023-05-16T11:22:05.421Z,34.59
2023-05-16T11:23:05.460Z,34.61
2023-05-16T11:24:05.466Z,34.59
2023-05-16T11:25:05.532Z,34.62
2023-05-16T11:26:05.568Z,34.63
2023-05-16T11:27:05.629Z,34.62
2023-05-16T11:28:05.941Z,34.58
2023-05-16T11:29:05.748Z,34.55
2023-05-16T11:30:05.795Z,34.52
2023-05-16T11:31:05.852Z,34.45
2023-05-16T11:32:05.954Z,34.47
2023-05-16T11:33:06.033Z,34.42
2023-05-16T11:34:05.957Z,34.34
2023-05-16T11:35:05.994Z,34.35
2023-05-16T11:37:06.022Z,34.34
2023-05-16T11:38:06.036Z,34.33
2023-05-16T11:39:06.029Z,34.32
2023-05-16T11:40:06.037Z,34.34
2023-05-16T11:41:05.984Z,34.34
2023-05-16T11:42:06.024Z,34.32
2023-05-16T11:43:07.472Z,34.36
2023-05-16T11:44:05.976Z,34.35
2023-05-16T11:45:05.970Z,34.29
2023-05-16T11:46:06.055Z,34.29
2023-05-16T11:47:06.036Z,34.29
2023-05-16T11:48:06.149Z,34.27
2023-05-16T11:49:05.951Z,34.31
2023-05-16T11:50:06.023Z,34.24
2023-05-16T11:51:05.932Z,34.24
2023-05-16T11:52:06.016Z,34.22
2023-05-16T11:53:05.927Z,34.21
2023-05-16T11:54:05.909Z,34.16
2023-05-16T11:55:05.950Z,34.16
2023-05-16T11:56:05.955Z,34.05
2023-05-16T11:57:05.904Z,34.04
2023-05-16T11:58:05.898Z,34.01
2023-05-16T11:59:05.914Z,33.99
2023-05-16T12:00:05.953Z,33.94
2023-05-16T12:01:06.103Z,33.94
2023-05-16T12:02:06.030Z,33.96
2023-05-16T12:03:06.706Z,33.93
2023-05-16T12:04:06.244Z,33.94
2023-05-16T12:05:06.198Z,33.89
2023-05-16T12:06:06.217Z,33.92
2023-05-16T12:07:06.259Z,33.94
2023-05-16T12:08:06.312Z,33.92
2023-05-16T12:09:06.420Z,33.93
2023-05-16T12:10:06.456Z,34.00
2023-05-16T12:11:06.982Z,34.06
2023-05-16T12:12:06.514Z,34.14
2023-05-16T12:13:06.585Z,34.20
2023-05-16T12:14:06.663Z,34.18
2023-05-16T12:15:06.684Z,34.23
2023-05-16T12:16:06.806Z,34.24
2023-05-16T12:17:06.915Z,34.31
2023-05-16T12:18:06.908Z,34.39
2023-05-16T12:19:07.076Z,34.40
2023-05-16T12:20:07.024Z,34.41
2023-05-16T12:21:07.069Z,34.45
2023-05-16T12:22:07.148Z,34.46
2023-05-16T12:23:07.266Z,34.46
2023-05-16T12:24:07.304Z,34.47
2023-05-16T12:25:07.307Z,34.54
2023-05-16T12:26:07.362Z,34.61
2023-05-16T12:27:07.441Z,34.71
2023-05-16T12:28:07.477Z,34.67
2023-05-16T12:29:07.620Z,34.70
2023-05-16T12:30:07.607Z,34.72
2023-05-16T12:31:13.286Z,34.69
2023-05-16T12:32:08.685Z,34.73
2023-05-16T12:33:08.387Z,34.73
2023-05-16T12:34:07.657Z,34.70
2023-05-16T12:35:07.604Z,34.70
2023-05-16T12:36:07.640Z,34.70
2023-05-16T12:37:07.620Z,34.69
2023-05-16T12:38:07.681Z,34.73
2023-05-16T12:39:09.301Z,34.64
2023-05-16T12:40:07.741Z,34.69
2023-05-16T12:41:07.804Z,34.71
2023-05-16T12:42:07.810Z,34.75
2023-05-16T12:43:07.897Z,34.75
2023-05-16T12:44:07.895Z,34.71
2023-05-16T12:45:08.581Z,34.71
2023-05-16T12:46:08.026Z,34.75
2023-05-16T12:47:08.056Z,34.72
2023-05-16T12:48:08.185Z,34.76
2023-05-16T12:49:08.565Z,34.75
2023-05-16T12:50:08.242Z,34.75
2023-05-16T12:51:08.325Z,34.75
2023-05-16T12:52:08.408Z,34.74
2023-05-16T12:53:08.430Z,34.76
2023-05-16T12:54:10.369Z,34.76
2023-05-16T12:55:08.544Z,34.79